sensor_id;sensor_type;location;lat;lon;timestamp;P1;durP1;ratioP1;P2;durP2;ratioP2
8199;SDS011;4141;47.880;12.340;2022-10-17T00:00:48;4.70;;;1.90;;
8199;SDS011;4141;47.880;12.340;2022-10-17T00:03:16;3.23;;;1.80;;
8199;SDS011;4141;47.880;12.340;2022-10-17T00:05:46;5.40;;;1.93;;
8199;SDS011;4141;47.880;12.340;2022-10-17T00:08:15;7.20;;;2.70;;
8199;SDS011;4141;47.880;12.340;2022-10-17T00:10:44;3.70;;;2.40;;
8199;SDS011;4141;47.880;12.340;2022-10-17T00:13:13;8.20;;;1.90;;
8199;SDS011;4141;47.880;12.340;2022-10-17T00:15:42;4.60;;;2.00;;
8199;SDS011;4141;47.880;12.340;2022-10-17T00:18:11;3.93;;;2.03;;
8199;SDS011;4141;47.880;12.340;2022-10-17T00:20:39;6.70;;;2.27;;
8199;SDS011;4141;47.880;12.340;2022-10-17T00:23:09;5.27;;;2.20;;
8199;SDS011;4141;47.880;12.340;2022-10-17T00:25:37;4.30;;;1.97;;
8199;SDS011;4141;47.880;12.340;2022-10-17T00:28:07;5.13;;;2.43;;
8199;SDS011;4141;47.880;12.340;2022-10-17T00:30:35;4.33;;;1.93;;
8199;SDS011;4141;47.880;12.340;2022-10-17T00:33:04;5.90;;;2.10;;
8199;SDS011;4141;47.880;12.340;2022-10-17T00:35:32;3.57;;;2.10;;
8199;SDS011;4141;47.880;12.340;2022-10-17T00:38:01;4.10;;;2.00;;
8199;SDS011;4141;47.880;12.340;2022-10-17T00:40:30;3.13;;;1.53;;
8199;SDS011;4141;47.880;12.340;2022-10-17T00:42:59;2.60;;;1.63;;
8199;SDS011;4141;47.880;12.340;2022-10-17T00:45:28;3.80;;;2.30;;
8199;SDS011;4141;47.880;12.340;2022-10-17T00:47:58;2.70;;;1.90;;
8199;SDS011;4141;47.880;12.340;2022-10-17T00:50:27;4.10;;;1.80;;
8199;SDS011;4141;47.880;12.340;2022-10-17T00:52:56;2.47;;;1.90;;
8199;SDS011;4141;47.880;12.340;2022-10-17T00:55:26;2.13;;;1.80;;
8199;SDS011;4141;47.880;12.340;2022-10-17T00:57:57;3.13;;;1.77;;
8199;SDS011;4141;47.880;12.340;2022-10-17T01:00:27;6.33;;;1.80;;
8199;SDS011;4141;47.880;12.340;2022-10-17T01:02:56;8.37;;;1.93;;
8199;SDS011;4141;47.880;12.340;2022-10-17T01:05:24;4.03;;;1.60;;
8199;SDS011;4141;47.880;12.340;2022-10-17T01:07:52;2.30;;;1.20;;
8199;SDS011;4141;47.880;12.340;2022-10-17T01:10:21;2.50;;;2.20;;
8199;SDS011;4141;47.880;12.340;2022-10-17T01:12:56;3.43;;;1.90;;
8199;SDS011;4141;47.880;12.340;2022-10-17T01:15:43;2.60;;;1.80;;
8199;SDS011;4141;47.880;12.340;2022-10-17T01:18:21;3.97;;;1.90;;
8199;SDS011;4141;47.880;12.340;2022-10-17T01:27:14;5.97;;;2.03;;
8199;SDS011;4141;47.880;12.340;2022-10-17T01:33:19;4.80;;;1.87;;
8199;SDS011;4141;47.880;12.340;2022-10-17T01:35:52;5.40;;;1.83;;
8199;SDS011;4141;47.880;12.340;2022-10-17T01:38:31;5.00;;;1.87;;
8199;SDS011;4141;47.880;12.340;2022-10-17T01:41:04;1.90;;;1.70;;
8199;SDS011;4141;47.880;12.340;2022-10-17T01:43:38;6.33;;;1.70;;
8199;SDS011;4141;47.880;12.340;2022-10-17T01:46:09;13.80;;;2.37;;
8199;SDS011;4141;47.880;12.340;2022-10-17T01:48:43;9.20;;;1.87;;
8199;SDS011;4141;47.880;12.340;2022-10-17T01:51:14;6.03;;;1.43;;
8199;SDS011;4141;47.880;12.340;2022-10-17T01:53:45;2.20;;;1.63;;
8199;SDS011;4141;47.880;12.340;2022-10-17T01:56:17;4.17;;;1.83;;
8199;SDS011;4141;47.880;12.340;2022-10-17T01:58:47;4.53;;;1.37;;
8199;SDS011;4141;47.880;12.340;2022-10-17T02:01:18;3.23;;;1.67;;
8199;SDS011;4141;47.880;12.340;2022-10-17T02:03:48;7.67;;;1.73;;
8199;SDS011;4141;47.880;12.340;2022-10-17T02:06:18;2.03;;;1.70;;
8199;SDS011;4141;47.880;12.340;2022-10-17T02:08:46;6.70;;;1.70;;
8199;SDS011;4141;47.880;12.340;2022-10-17T02:11:16;3.60;;;2.10;;
8199;SDS011;4141;47.880;12.340;2022-10-17T02:13:50;5.03;;;1.53;;
8199;SDS011;4141;47.880;12.340;2022-10-17T02:16:29;4.20;;;1.73;;
8199;SDS011;4141;47.880;12.340;2022-10-17T02:19:13;10.83;;;2.23;;
8199;SDS011;4141;47.880;12.340;2022-10-17T02:21:49;8.43;;;1.57;;
8199;SDS011;4141;47.880;12.340;2022-10-17T02:24:23;3.40;;;1.80;;
8199;SDS011;4141;47.880;12.340;2022-10-17T02:26:58;7.63;;;1.70;;
8199;SDS011;4141;47.880;12.340;2022-10-17T02:29:33;4.40;;;1.50;;
8199;SDS011;4141;47.880;12.340;2022-10-17T02:32:04;4.03;;;1.80;;
8199;SDS011;4141;47.880;12.340;2022-10-17T02:34:36;2.80;;;1.60;;
8199;SDS011;4141;47.880;12.340;2022-10-17T02:37:07;6.07;;;1.60;;
8199;SDS011;4141;47.880;12.340;2022-10-17T02:39:36;4.70;;;1.57;;
8199;SDS011;4141;47.880;12.340;2022-10-17T02:42:08;5.17;;;1.80;;
8199;SDS011;4141;47.880;12.340;2022-10-17T02:44:38;5.80;;;1.87;;
8199;SDS011;4141;47.880;12.340;2022-10-17T02:47:10;3.53;;;2.23;;
8199;SDS011;4141;47.880;12.340;2022-10-17T02:49:51;5.23;;;1.73;;
8199;SDS011;4141;47.880;12.340;2022-10-17T02:52:21;7.10;;;2.27;;
8199;SDS011;4141;47.880;12.340;2022-10-17T02:54:53;3.87;;;1.40;;
8199;SDS011;4141;47.880;12.340;2022-10-17T02:57:26;3.03;;;1.60;;
8199;SDS011;4141;47.880;12.340;2022-10-17T02:59:57;4.07;;;2.50;;
8199;SDS011;4141;47.880;12.340;2022-10-17T03:02:27;5.77;;;2.30;;
8199;SDS011;4141;47.880;12.340;2022-10-17T03:04:57;2.17;;;1.60;;
8199;SDS011;4141;47.880;12.340;2022-10-17T03:07:25;7.00;;;3.00;;
8199;SDS011;4141;47.880;12.340;2022-10-17T03:09:53;6.03;;;2.60;;
8199;SDS011;4141;47.880;12.340;2022-10-17T03:12:22;6.00;;;2.17;;
8199;SDS011;4141;47.880;12.340;2022-10-17T03:14:50;5.03;;;1.60;;
8199;SDS011;4141;47.880;12.340;2022-10-17T03:17:18;8.27;;;2.40;;
8199;SDS011;4141;47.880;12.340;2022-10-17T03:19:46;7.83;;;2.20;;
8199;SDS011;4141;47.880;12.340;2022-10-17T03:22:16;2.80;;;1.93;;
8199;SDS011;4141;47.880;12.340;2022-10-17T03:24:44;2.50;;;1.77;;
8199;SDS011;4141;47.880;12.340;2022-10-17T03:27:12;8.43;;;4.50;;
8199;SDS011;4141;47.880;12.340;2022-10-17T03:29:40;5.00;;;3.50;;
8199;SDS011;4141;47.880;12.340;2022-10-17T03:32:08;11.23;;;3.40;;
8199;SDS011;4141;47.880;12.340;2022-10-17T03:34:37;4.07;;;2.50;;
8199;SDS011;4141;47.880;12.340;2022-10-17T03:37:07;7.40;;;2.70;;
8199;SDS011;4141;47.880;12.340;2022-10-17T03:39:36;9.10;;;2.10;;
8199;SDS011;4141;47.880;12.340;2022-10-17T03:42:05;9.20;;;5.50;;
8199;SDS011;4141;47.880;12.340;2022-10-17T03:44:33;4.30;;;2.13;;
8199;SDS011;4141;47.880;12.340;2022-10-17T03:47:01;3.30;;;2.13;;
8199;SDS011;4141;47.880;12.340;2022-10-17T03:49:29;4.90;;;3.20;;
8199;SDS011;4141;47.880;12.340;2022-10-17T03:51:58;4.43;;;2.90;;
8199;SDS011;4141;47.880;12.340;2022-10-17T03:54:28;5.30;;;2.40;;
8199;SDS011;4141;47.880;12.340;2022-10-17T03:56:57;4.53;;;2.23;;
8199;SDS011;4141;47.880;12.340;2022-10-17T03:59:25;3.30;;;2.30;;
8199;SDS011;4141;47.880;12.340;2022-10-17T04:01:54;8.23;;;3.03;;
8199;SDS011;4141;47.880;12.340;2022-10-17T04:04:22;3.70;;;2.40;;
8199;SDS011;4141;47.880;12.340;2022-10-17T04:06:50;5.13;;;3.13;;
8199;SDS011;4141;47.880;12.340;2022-10-17T04:09:18;3.50;;;2.90;;
8199;SDS011;4141;47.880;12.340;2022-10-17T04:11:47;5.30;;;2.63;;
8199;SDS011;4141;47.880;12.340;2022-10-17T04:14:17;8.50;;;2.33;;
8199;SDS011;4141;47.880;12.340;2022-10-17T04:16:45;3.30;;;2.20;;
8199;SDS011;4141;47.880;12.340;2022-10-17T04:19:13;4.97;;;2.13;;
8199;SDS011;4141;47.880;12.340;2022-10-17T04:21:41;3.67;;;2.30;;
8199;SDS011;4141;47.880;12.340;2022-10-17T04:24:10;4.07;;;2.10;;
8199;SDS011;4141;47.880;12.340;2022-10-17T04:26:38;3.40;;;2.40;;
8199;SDS011;4141;47.880;12.340;2022-10-17T04:29:06;8.73;;;2.40;;
8199;SDS011;4141;47.880;12.340;2022-10-17T04:31:36;8.90;;;2.63;;
8199;SDS011;4141;47.880;12.340;2022-10-17T04:34:04;5.00;;;2.47;;
8199;SDS011;4141;47.880;12.340;2022-10-17T04:36:33;17.20;;;2.67;;
8199;SDS011;4141;47.880;12.340;2022-10-17T04:39:05;6.70;;;3.13;;
8199;SDS011;4141;47.880;12.340;2022-10-17T04:41:34;4.50;;;2.63;;
8199;SDS011;4141;47.880;12.340;2022-10-17T04:44:02;3.20;;;2.03;;
8199;SDS011;4141;47.880;12.340;2022-10-17T04:46:32;3.60;;;2.27;;
8199;SDS011;4141;47.880;12.340;2022-10-17T04:49:01;2.80;;;2.17;;
8199;SDS011;4141;47.880;12.340;2022-10-17T04:51:30;3.37;;;2.40;;
8199;SDS011;4141;47.880;12.340;2022-10-17T04:53:58;4.17;;;2.60;;
8199;SDS011;4141;47.880;12.340;2022-10-17T04:56:26;3.20;;;2.30;;
8199;SDS011;4141;47.880;12.340;2022-10-17T04:58:54;7.20;;;2.80;;
8199;SDS011;4141;47.880;12.340;2022-10-17T05:01:22;5.17;;;2.90;;
8199;SDS011;4141;47.880;12.340;2022-10-17T05:03:51;6.60;;;3.00;;
8199;SDS011;4141;47.880;12.340;2022-10-17T05:06:23;5.03;;;3.37;;
8199;SDS011;4141;47.880;12.340;2022-10-17T05:08:53;4.00;;;2.80;;
8199;SDS011;4141;47.880;12.340;2022-10-17T05:11:23;12.30;;;2.90;;
8199;SDS011;4141;47.880;12.340;2022-10-17T05:13:55;4.63;;;3.13;;
8199;SDS011;4141;47.880;12.340;2022-10-17T05:16:25;5.43;;;3.20;;
8199;SDS011;4141;47.880;12.340;2022-10-17T05:18:54;5.50;;;3.37;;
8199;SDS011;4141;47.880;12.340;2022-10-17T05:21:25;8.80;;;3.43;;
8199;SDS011;4141;47.880;12.340;2022-10-17T05:23:54;9.97;;;3.10;;
8199;SDS011;4141;47.880;12.340;2022-10-17T05:26:24;5.17;;;3.03;;
8199;SDS011;4141;47.880;12.340;2022-10-17T05:28:53;9.43;;;3.30;;
8199;SDS011;4141;47.880;12.340;2022-10-17T05:31:21;9.03;;;3.47;;
8199;SDS011;4141;47.880;12.340;2022-10-17T05:36:54;10.27;;;3.37;;
8199;SDS011;4141;47.880;12.340;2022-10-17T05:39:24;9.60;;;3.40;;
8199;SDS011;4141;47.880;12.340;2022-10-17T05:41:56;9.60;;;3.50;;
8199;SDS011;4141;47.880;12.340;2022-10-17T05:44:25;8.77;;;3.67;;
8199;SDS011;4141;47.880;12.340;2022-10-17T05:46:54;6.90;;;3.90;;
8199;SDS011;4141;47.880;12.340;2022-10-17T05:49:22;5.97;;;2.87;;
8199;SDS011;4141;47.880;12.340;2022-10-17T05:52:11;6.90;;;3.37;;
8199;SDS011;4141;47.880;12.340;2022-10-17T05:54:39;5.70;;;3.40;;
8199;SDS011;4141;47.880;12.340;2022-10-17T05:57:08;7.67;;;3.20;;
8199;SDS011;4141;47.880;12.340;2022-10-17T05:59:36;15.10;;;3.40;;
8199;SDS011;4141;47.880;12.340;2022-10-17T06:02:04;12.73;;;3.30;;
8199;SDS011;4141;47.880;12.340;2022-10-17T06:04:32;7.30;;;3.60;;
8199;SDS011;4141;47.880;12.340;2022-10-17T06:07:01;6.13;;;2.87;;
8199;SDS011;4141;47.880;12.340;2022-10-17T06:09:30;4.83;;;2.80;;
8199;SDS011;4141;47.880;12.340;2022-10-17T06:11:58;4.10;;;2.93;;
8199;SDS011;4141;47.880;12.340;2022-10-17T06:14:28;4.47;;;2.37;;
8199;SDS011;4141;47.880;12.340;2022-10-17T06:16:56;4.23;;;1.90;;
8199;SDS011;4141;47.880;12.340;2022-10-17T06:19:25;3.53;;;2.10;;
8199;SDS011;4141;47.880;12.340;2022-10-17T06:21:54;2.90;;;1.90;;
8199;SDS011;4141;47.880;12.340;2022-10-17T06:24:22;7.20;;;3.33;;
8199;SDS011;4141;47.880;12.340;2022-10-17T06:26:52;5.30;;;1.70;;
8199;SDS011;4141;47.880;12.340;2022-10-17T06:29:20;6.20;;;2.10;;
8199;SDS011;4141;47.880;12.340;2022-10-17T06:31:48;7.90;;;3.30;;
8199;SDS011;4141;47.880;12.340;2022-10-17T06:34:16;3.93;;;2.10;;
8199;SDS011;4141;47.880;12.340;2022-10-17T06:36:44;6.33;;;2.40;;
8199;SDS011;4141;47.880;12.340;2022-10-17T06:39:13;4.87;;;2.00;;
8199;SDS011;4141;47.880;12.340;2022-10-17T06:41:41;8.23;;;2.10;;
8199;SDS011;4141;47.880;12.340;2022-10-17T06:44:11;3.73;;;2.00;;
8199;SDS011;4141;47.880;12.340;2022-10-17T06:46:39;4.70;;;2.40;;
8199;SDS011;4141;47.880;12.340;2022-10-17T06:49:08;7.60;;;2.80;;
8199;SDS011;4141;47.880;12.340;2022-10-17T06:51:36;4.60;;;2.60;;
8199;SDS011;4141;47.880;12.340;2022-10-17T06:54:04;5.90;;;2.67;;
8199;SDS011;4141;47.880;12.340;2022-10-17T06:56:33;7.13;;;3.23;;
8199;SDS011;4141;47.880;12.340;2022-10-17T06:59:01;5.10;;;2.47;;
8199;SDS011;4141;47.880;12.340;2022-10-17T07:01:31;2.70;;;1.97;;
8199;SDS011;4141;47.880;12.340;2022-10-17T07:03:59;6.27;;;2.70;;
8199;SDS011;4141;47.880;12.340;2022-10-17T07:06:28;2.80;;;2.10;;
8199;SDS011;4141;47.880;12.340;2022-10-17T07:08:56;5.50;;;2.10;;
8199;SDS011;4141;47.880;12.340;2022-10-17T07:11:26;4.40;;;2.40;;
8199;SDS011;4141;47.880;12.340;2022-10-17T07:13:54;8.03;;;1.93;;
8199;SDS011;4141;47.880;12.340;2022-10-17T07:16:23;4.27;;;2.17;;
8199;SDS011;4141;47.880;12.340;2022-10-17T07:18:53;4.50;;;1.73;;
8199;SDS011;4141;47.880;12.340;2022-10-17T07:21:22;3.50;;;2.23;;
8199;SDS011;4141;47.880;12.340;2022-10-17T07:23:50;7.40;;;2.20;;
8199;SDS011;4141;47.880;12.340;2022-10-17T07:26:19;4.43;;;1.90;;
8199;SDS011;4141;47.880;12.340;2022-10-17T07:28:50;2.50;;;1.73;;
8199;SDS011;4141;47.880;12.340;2022-10-17T07:31:20;4.13;;;2.20;;
8199;SDS011;4141;47.880;12.340;2022-10-17T07:33:49;20.60;;;3.00;;
8199;SDS011;4141;47.880;12.340;2022-10-17T07:36:19;5.07;;;2.20;;
8199;SDS011;4141;47.880;12.340;2022-10-17T07:38:47;4.57;;;2.00;;
8199;SDS011;4141;47.880;12.340;2022-10-17T07:41:16;3.47;;;2.80;;
8199;SDS011;4141;47.880;12.340;2022-10-17T07:43:47;3.57;;;2.57;;
8199;SDS011;4141;47.880;12.340;2022-10-17T07:46:15;5.07;;;2.60;;
8199;SDS011;4141;47.880;12.340;2022-10-17T07:48:44;3.93;;;2.57;;
8199;SDS011;4141;47.880;12.340;2022-10-17T07:51:13;4.50;;;2.57;;
8199;SDS011;4141;47.880;12.340;2022-10-17T07:53:45;11.33;;;3.13;;
8199;SDS011;4141;47.880;12.340;2022-10-17T07:56:14;5.80;;;3.03;;
8199;SDS011;4141;47.880;12.340;2022-10-17T07:58:43;6.63;;;3.20;;
8199;SDS011;4141;47.880;12.340;2022-10-17T08:01:11;4.27;;;2.80;;
8199;SDS011;4141;47.880;12.340;2022-10-17T08:03:42;4.30;;;3.13;;
8199;SDS011;4141;47.880;12.340;2022-10-17T08:06:11;3.73;;;2.20;;
8199;SDS011;4141;47.880;12.340;2022-10-17T08:08:39;6.97;;;2.60;;
8199;SDS011;4141;47.880;12.340;2022-10-17T08:11:10;6.53;;;2.67;;
8199;SDS011;4141;47.880;12.340;2022-10-17T08:13:40;3.23;;;2.40;;
8199;SDS011;4141;47.880;12.340;2022-10-17T08:16:10;3.70;;;2.33;;
8199;SDS011;4141;47.880;12.340;2022-10-17T08:18:39;4.23;;;2.20;;
8199;SDS011;4141;47.880;12.340;2022-10-17T08:21:08;6.03;;;2.50;;
8199;SDS011;4141;47.880;12.340;2022-10-17T08:23:38;5.40;;;2.03;;
8199;SDS011;4141;47.880;12.340;2022-10-17T08:26:07;5.83;;;2.53;;
8199;SDS011;4141;47.880;12.340;2022-10-17T08:28:39;6.10;;;2.50;;
8199;SDS011;4141;47.880;12.340;2022-10-17T08:31:08;4.27;;;2.37;;
8199;SDS011;4141;47.880;12.340;2022-10-17T08:33:37;11.00;;;2.70;;
8199;SDS011;4141;47.880;12.340;2022-10-17T08:36:07;5.33;;;2.30;;
8199;SDS011;4141;47.880;12.340;2022-10-17T08:38:36;4.37;;;2.37;;
8199;SDS011;4141;47.880;12.340;2022-10-17T08:41:12;6.37;;;2.30;;
8199;SDS011;4141;47.880;12.340;2022-10-17T08:43:46;4.43;;;2.80;;
8199;SDS011;4141;47.880;12.340;2022-10-17T08:46:22;3.40;;;2.87;;
8199;SDS011;4141;47.880;12.340;2022-10-17T08:48:56;10.07;;;3.20;;
8199;SDS011;4141;47.880;12.340;2022-10-17T08:51:27;6.40;;;3.17;;
8199;SDS011;4141;47.880;12.340;2022-10-17T08:54:00;4.50;;;2.33;;
8199;SDS011;4141;47.880;12.340;2022-10-17T08:56:34;4.83;;;2.60;;
8199;SDS011;4141;47.880;12.340;2022-10-17T08:59:16;7.07;;;3.20;;
8199;SDS011;4141;47.880;12.340;2022-10-17T09:01:47;8.80;;;2.90;;
8199;SDS011;4141;47.880;12.340;2022-10-17T09:07:14;3.20;;;2.60;;
8199;SDS011;4141;47.880;12.340;2022-10-17T09:09:53;6.13;;;2.53;;
8199;SDS011;4141;47.880;12.340;2022-10-17T09:12:30;7.83;;;3.13;;
8199;SDS011;4141;47.880;12.340;2022-10-17T09:15:10;3.10;;;2.50;;
8199;SDS011;4141;47.880;12.340;2022-10-17T09:17:49;4.50;;;2.90;;
8199;SDS011;4141;47.880;12.340;2022-10-17T09:20:20;6.63;;;2.97;;
8199;SDS011;4141;47.880;12.340;2022-10-17T09:22:54;3.83;;;3.13;;
8199;SDS011;4141;47.880;12.340;2022-10-17T09:25:25;9.13;;;3.20;;
8199;SDS011;4141;47.880;12.340;2022-10-17T09:28:03;7.97;;;6.50;;
8199;SDS011;4141;47.880;12.340;2022-10-17T09:30:39;5.80;;;3.00;;
8199;SDS011;4141;47.880;12.340;2022-10-17T09:33:12;3.60;;;2.67;;
8199;SDS011;4141;47.880;12.340;2022-10-17T09:36:02;5.07;;;2.70;;
8199;SDS011;4141;47.880;12.340;2022-10-17T09:38:35;4.03;;;2.60;;
8199;SDS011;4141;47.880;12.340;2022-10-17T09:41:14;4.10;;;3.13;;
8199;SDS011;4141;47.880;12.340;2022-10-17T09:44:16;3.60;;;3.10;;
8199;SDS011;4141;47.880;12.340;2022-10-17T09:46:49;7.67;;;2.70;;
8199;SDS011;4141;47.880;12.340;2022-10-17T09:49:31;4.63;;;2.67;;
8199;SDS011;4141;47.880;12.340;2022-10-17T09:52:01;4.17;;;2.93;;
8199;SDS011;4141;47.880;12.340;2022-10-17T09:54:38;6.03;;;3.50;;
8199;SDS011;4141;47.880;12.340;2022-10-17T09:57:11;5.43;;;2.73;;
8199;SDS011;4141;47.880;12.340;2022-10-17T09:59:43;3.60;;;2.87;;
8199;SDS011;4141;47.880;12.340;2022-10-17T10:02:16;6.70;;;3.03;;
8199;SDS011;4141;47.880;12.340;2022-10-17T10:04:55;6.07;;;3.20;;
8199;SDS011;4141;47.880;12.340;2022-10-17T10:07:34;4.70;;;3.60;;
8199;SDS011;4141;47.880;12.340;2022-10-17T10:10:04;12.67;;;3.50;;
8199;SDS011;4141;47.880;12.340;2022-10-17T10:12:37;3.43;;;2.73;;
8199;SDS011;4141;47.880;12.340;2022-10-17T10:18:00;5.87;;;3.30;;
8199;SDS011;4141;47.880;12.340;2022-10-17T10:20:32;3.77;;;2.90;;
8199;SDS011;4141;47.880;12.340;2022-10-17T10:23:05;4.23;;;3.30;;
8199;SDS011;4141;47.880;12.340;2022-10-17T10:25:52;6.80;;;3.40;;
8199;SDS011;4141;47.880;12.340;2022-10-17T10:28:24;5.53;;;3.20;;
8199;SDS011;4141;47.880;12.340;2022-10-17T10:30:56;4.60;;;3.23;;
8199;SDS011;4141;47.880;12.340;2022-10-17T10:33:26;11.60;;;3.50;;
8199;SDS011;4141;47.880;12.340;2022-10-17T10:35:57;5.17;;;3.40;;
8199;SDS011;4141;47.880;12.340;2022-10-17T10:38:27;6.83;;;3.87;;
8199;SDS011;4141;47.880;12.340;2022-10-17T10:41:04;7.93;;;4.70;;
8199;SDS011;4141;47.880;12.340;2022-10-17T10:43:35;4.70;;;3.10;;
8199;SDS011;4141;47.880;12.340;2022-10-17T10:46:17;6.27;;;3.40;;
8199;SDS011;4141;47.880;12.340;2022-10-17T10:48:49;5.23;;;2.80;;
8199;SDS011;4141;47.880;12.340;2022-10-17T10:51:20;5.03;;;3.67;;
8199;SDS011;4141;47.880;12.340;2022-10-17T10:53:51;5.40;;;3.10;;
8199;SDS011;4141;47.880;12.340;2022-10-17T10:56:24;3.13;;;2.80;;
8199;SDS011;4141;47.880;12.340;2022-10-17T10:59:03;5.50;;;4.20;;
8199;SDS011;4141;47.880;12.340;2022-10-17T11:01:43;4.10;;;3.70;;
8199;SDS011;4141;47.880;12.340;2022-10-17T11:04:22;5.00;;;3.03;;
8199;SDS011;4141;47.880;12.340;2022-10-17T11:06:59;6.27;;;3.33;;
8199;SDS011;4141;47.880;12.340;2022-10-17T11:09:36;5.90;;;3.10;;
8199;SDS011;4141;47.880;12.340;2022-10-17T11:12:18;3.93;;;3.53;;
8199;SDS011;4141;47.880;12.340;2022-10-17T11:14:50;5.50;;;3.50;;
8199;SDS011;4141;47.880;12.340;2022-10-17T11:17:26;6.30;;;3.80;;
8199;SDS011;4141;47.880;12.340;2022-10-17T11:20:02;4.43;;;4.03;;
8199;SDS011;4141;47.880;12.340;2022-10-17T11:22:43;5.40;;;3.70;;
8199;SDS011;4141;47.880;12.340;2022-10-17T11:25:30;3.83;;;3.20;;
8199;SDS011;4141;47.880;12.340;2022-10-17T11:28:01;8.70;;;3.17;;
8199;SDS011;4141;47.880;12.340;2022-10-17T11:30:34;4.37;;;3.40;;
8199;SDS011;4141;47.880;12.340;2022-10-17T11:33:20;4.53;;;3.60;;
8199;SDS011;4141;47.880;12.340;2022-10-17T11:35:57;5.83;;;3.23;;
8199;SDS011;4141;47.880;12.340;2022-10-17T11:38:34;3.83;;;3.00;;
8199;SDS011;4141;47.880;12.340;2022-10-17T11:41:07;5.40;;;4.13;;
8199;SDS011;4141;47.880;12.340;2022-10-17T11:43:41;5.00;;;3.40;;
8199;SDS011;4141;47.880;12.340;2022-10-17T11:46:14;9.73;;;3.50;;
8199;SDS011;4141;47.880;12.340;2022-10-17T11:48:54;11.33;;;3.83;;
8199;SDS011;4141;47.880;12.340;2022-10-17T11:51:25;3.80;;;2.83;;
8199;SDS011;4141;47.880;12.340;2022-10-17T11:54:15;11.63;;;3.73;;
8199;SDS011;4141;47.880;12.340;2022-10-17T11:56:50;4.40;;;2.77;;
8199;SDS011;4141;47.880;12.340;2022-10-17T12:02:19;6.30;;;3.93;;
8199;SDS011;4141;47.880;12.340;2022-10-17T12:04:57;3.30;;;2.83;;
8199;SDS011;4141;47.880;12.340;2022-10-17T12:07:34;3.80;;;3.27;;
8199;SDS011;4141;47.880;12.340;2022-10-17T12:10:06;4.17;;;3.50;;
8199;SDS011;4141;47.880;12.340;2022-10-17T12:12:46;4.90;;;3.00;;
8199;SDS011;4141;47.880;12.340;2022-10-17T12:15:28;4.23;;;3.50;;
8199;SDS011;4141;47.880;12.340;2022-10-17T12:17:58;3.37;;;3.07;;
8199;SDS011;4141;47.880;12.340;2022-10-17T12:20:34;5.67;;;3.37;;
8199;SDS011;4141;47.880;12.340;2022-10-17T12:23:12;4.70;;;3.27;;
8199;SDS011;4141;47.880;12.340;2022-10-17T12:26:03;7.80;;;3.70;;
8199;SDS011;4141;47.880;12.340;2022-10-17T12:28:33;8.77;;;3.50;;
8199;SDS011;4141;47.880;12.340;2022-10-17T12:31:09;5.50;;;3.77;;
8199;SDS011;4141;47.880;12.340;2022-10-17T12:33:49;6.50;;;3.70;;
8199;SDS011;4141;47.880;12.340;2022-10-17T12:42:32;5.00;;;2.90;;
8199;SDS011;4141;47.880;12.340;2022-10-17T12:51:18;5.20;;;3.30;;
8199;SDS011;4141;47.880;12.340;2022-10-17T12:54:07;3.53;;;3.07;;
8199;SDS011;4141;47.880;12.340;2022-10-17T12:56:39;10.43;;;3.00;;
8199;SDS011;4141;47.880;12.340;2022-10-17T12:59:12;7.20;;;3.10;;
8199;SDS011;4141;47.880;12.340;2022-10-17T13:01:44;7.40;;;3.40;;
8199;SDS011;4141;47.880;12.340;2022-10-17T13:04:14;4.80;;;3.80;;
8199;SDS011;4141;47.880;12.340;2022-10-17T13:06:44;13.73;;;3.53;;
8199;SDS011;4141;47.880;12.340;2022-10-17T13:09:19;3.90;;;3.30;;
8199;SDS011;4141;47.880;12.340;2022-10-17T13:11:57;5.53;;;3.60;;
8199;SDS011;4141;47.880;12.340;2022-10-17T13:14:27;5.80;;;3.87;;
8199;SDS011;4141;47.880;12.340;2022-10-17T13:16:57;5.63;;;4.13;;
8199;SDS011;4141;47.880;12.340;2022-10-17T13:19:28;5.77;;;4.00;;
8199;SDS011;4141;47.880;12.340;2022-10-17T13:21:59;5.13;;;4.10;;
8199;SDS011;4141;47.880;12.340;2022-10-17T13:24:37;5.43;;;3.47;;
8199;SDS011;4141;47.880;12.340;2022-10-17T13:27:20;7.27;;;3.50;;
8199;SDS011;4141;47.880;12.340;2022-10-17T13:29:51;7.83;;;3.87;;
8199;SDS011;4141;47.880;12.340;2022-10-17T13:32:22;6.83;;;3.47;;
8199;SDS011;4141;47.880;12.340;2022-10-17T13:35:06;4.27;;;2.80;;
8199;SDS011;4141;47.880;12.340;2022-10-17T13:37:35;6.50;;;2.97;;
8199;SDS011;4141;47.880;12.340;2022-10-17T13:40:15;4.00;;;3.40;;
8199;SDS011;4141;47.880;12.340;2022-10-17T13:43:08;3.03;;;2.73;;
8199;SDS011;4141;47.880;12.340;2022-10-17T13:45:50;3.63;;;2.60;;
8199;SDS011;4141;47.880;12.340;2022-10-17T13:48:20;6.50;;;3.13;;
8199;SDS011;4141;47.880;12.340;2022-10-17T13:50:51;14.20;;;3.53;;
8199;SDS011;4141;47.880;12.340;2022-10-17T13:53:25;6.90;;;3.23;;
8199;SDS011;4141;47.880;12.340;2022-10-17T13:56:00;5.57;;;4.07;;
8199;SDS011;4141;47.880;12.340;2022-10-17T13:58:50;3.67;;;3.10;;
8199;SDS011;4141;47.880;12.340;2022-10-17T14:01:19;7.03;;;3.40;;
8199;SDS011;4141;47.880;12.340;2022-10-17T14:03:48;5.43;;;3.80;;
8199;SDS011;4141;47.880;12.340;2022-10-17T14:06:33;8.20;;;3.40;;
8199;SDS011;4141;47.880;12.340;2022-10-17T14:09:02;6.33;;;3.57;;
8199;SDS011;4141;47.880;12.340;2022-10-17T14:11:34;8.60;;;4.30;;
8199;SDS011;4141;47.880;12.340;2022-10-17T14:14:05;5.57;;;3.23;;
8199;SDS011;4141;47.880;12.340;2022-10-17T14:16:36;6.30;;;4.40;;
8199;SDS011;4141;47.880;12.340;2022-10-17T14:19:12;5.70;;;3.07;;
8199;SDS011;4141;47.880;12.340;2022-10-17T14:21:47;9.90;;;4.53;;
8199;SDS011;4141;47.880;12.340;2022-10-17T14:24:24;8.80;;;4.40;;
8199;SDS011;4141;47.880;12.340;2022-10-17T14:26:56;17.50;;;5.00;;
8199;SDS011;4141;47.880;12.340;2022-10-17T14:29:27;13.23;;;5.00;;
8199;SDS011;4141;47.880;12.340;2022-10-17T14:31:57;10.47;;;4.60;;
8199;SDS011;4141;47.880;12.340;2022-10-17T14:34:28;5.67;;;3.40;;
8199;SDS011;4141;47.880;12.340;2022-10-17T14:36:58;5.47;;;3.70;;
8199;SDS011;4141;47.880;12.340;2022-10-17T14:39:27;10.70;;;4.40;;
8199;SDS011;4141;47.880;12.340;2022-10-17T14:41:57;7.50;;;3.83;;
8199;SDS011;4141;47.880;12.340;2022-10-17T14:44:30;8.60;;;3.77;;
8199;SDS011;4141;47.880;12.340;2022-10-17T14:47:00;6.90;;;3.17;;
8199;SDS011;4141;47.880;12.340;2022-10-17T14:49:55;5.67;;;4.00;;
8199;SDS011;4141;47.880;12.340;2022-10-17T14:52:30;6.17;;;2.83;;
8199;SDS011;4141;47.880;12.340;2022-10-17T14:55:12;6.77;;;3.50;;
8199;SDS011;4141;47.880;12.340;2022-10-17T14:57:48;9.50;;;4.20;;
8199;SDS011;4141;47.880;12.340;2022-10-17T15:00:17;6.40;;;4.27;;
8199;SDS011;4141;47.880;12.340;2022-10-17T15:02:46;5.97;;;3.70;;
8199;SDS011;4141;47.880;12.340;2022-10-17T15:05:14;5.70;;;3.87;;
8199;SDS011;4141;47.880;12.340;2022-10-17T15:07:43;12.97;;;3.70;;
8199;SDS011;4141;47.880;12.340;2022-10-17T15:10:22;10.60;;;3.53;;
8199;SDS011;4141;47.880;12.340;2022-10-17T15:12:54;4.40;;;3.50;;
8199;SDS011;4141;47.880;12.340;2022-10-17T15:15:30;10.80;;;4.47;;
8199;SDS011;4141;47.880;12.340;2022-10-17T15:17:58;7.83;;;3.20;;
8199;SDS011;4141;47.880;12.340;2022-10-17T15:20:27;6.30;;;3.30;;
8199;SDS011;4141;47.880;12.340;2022-10-17T15:22:56;6.20;;;3.17;;
8199;SDS011;4141;47.880;12.340;2022-10-17T15:25:26;4.90;;;3.07;;
8199;SDS011;4141;47.880;12.340;2022-10-17T15:27:56;11.23;;;3.30;;
8199;SDS011;4141;47.880;12.340;2022-10-17T15:30:25;3.53;;;2.90;;
8199;SDS011;4141;47.880;12.340;2022-10-17T15:32:54;4.27;;;3.20;;
8199;SDS011;4141;47.880;12.340;2022-10-17T15:35:22;4.10;;;2.80;;
8199;SDS011;4141;47.880;12.340;2022-10-17T15:37:51;6.63;;;3.20;;
8199;SDS011;4141;47.880;12.340;2022-10-17T15:40:20;5.57;;;3.13;;
8199;SDS011;4141;47.880;12.340;2022-10-17T15:42:50;6.90;;;3.73;;
8199;SDS011;4141;47.880;12.340;2022-10-17T15:45:19;7.47;;;3.30;;
8199;SDS011;4141;47.880;12.340;2022-10-17T15:47:49;6.57;;;3.13;;
8199;SDS011;4141;47.880;12.340;2022-10-17T15:50:18;5.30;;;3.33;;
8199;SDS011;4141;47.880;12.340;2022-10-17T15:52:47;5.40;;;3.90;;
8199;SDS011;4141;47.880;12.340;2022-10-17T15:55:16;8.53;;;3.37;;
8199;SDS011;4141;47.880;12.340;2022-10-17T15:57:45;5.63;;;3.30;;
8199;SDS011;4141;47.880;12.340;2022-10-17T16:00:15;8.27;;;3.40;;
8199;SDS011;4141;47.880;12.340;2022-10-17T16:02:45;6.53;;;4.00;;